< < Back
Terminal Aerodrome Forecast


Current Version              Previous Versions:   1  2  3  4  5  6  7  8  9  

Terminal Aerodrome Forecast

087
FTUS42 KJAX 310524
TAFJAX
TAF
KJAX 310524Z 3106/0106 25007KT P6SM FEW050
     FM311000 26003KT 3SM BR SCT005
     FM311400 27006KT P6SM FEW030 SCT250
     FM311800 25009KT P6SM SCT040 BKN250
     FM312200 22007KT P6SM VCTS BKN050CB BKN250
     FM010500 24005KT P6SM SCT050 BKN250=



Latest METAR

086
SAUS80 KWBC 310900 RRA
MTRJAX
METAR KJAX 310856Z 25004KT 10SM FEW055 14/13 A3010 RMK AO2 SLP191
T01440133 56013


USA.gov is the U.S. government's official web portal to all federal, state and local government web resources and services.